Time;durP1;ratioP1;P1;durP2;ratioP2;P2;SDS_P1;SDS_P2;PMS_P1;PMS_P2;Temp;Humidity;BMP_temperature;BMP_pressure;BME280_temperature;BME280_humidity;BME280_pressure;Samples;Min_cycle;Max_cycle;Signal;HPM_P1;HPM_P2
2023/12/26 00:01:09;;;;;;;;;;;;;;;6.48;78.85;101340.13;10370180;28;97034;-85
2023/12/26 00:06:15;;;;;;;;;;;;;;;6.41;79.08;101330.56;10369797;28;96961;-84
2023/12/26 00:11:20;;;;;;;;;;;;;;;6.43;79.07;101333.19;10374309;28;96690;-85
2023/12/26 00:16:26;;;;;;;;;;;;;;;6.45;78.94;101327.06;10376610;28;96771;-84
2023/12/26 00:21:30;;;;;;;;;;;;;;;6.35;79.22;101312.31;10376653;28;96695;-85
2023/12/26 00:26:34;;;;;;;;;;;;;;;6.41;79.18;101308.78;10403520;28;97540;-85
2023/12/26 00:31:42;;;;;;;;;;;;;;;6.35;79.27;101306.22;10378471;28;96761;-85
2023/12/26 00:36:49;;;;;;;;;;;;;;;6.38;79.57;101307.06;10375901;28;97111;-85
2023/12/26 00:41:52;;;;;;;;;;;;;;;6.33;79.08;101303.59;10376325;28;97033;-84
2023/12/26 00:47:02;;;;;;;;;;;;;;;6.32;79.20;101301.88;10374818;28;96963;-85
2023/12/26 00:52:09;;;;;;;;;;;;;;;6.25;79.73;101300.16;10376315;28;97213;-84
2023/12/26 00:57:13;;;;;;;;;;;;;;;6.24;79.69;101287.09;10369235;28;96710;-84
2023/12/26 01:02:24;;;;;;;;;;;;;;;6.25;79.63;101288.84;10333829;28;96753;-85
2023/12/26 01:07:28;;;;;;;;;;;;;;;6.27;79.02;101287.97;10338091;28;96815;-83
2023/12/26 01:12:32;;;;;;;;;;;;;;;6.25;79.86;101292.31;10375067;28;97241;-84
2023/12/26 01:17:39;;;;;;;;;;;;;;;6.24;79.91;101292.34;10374613;28;97171;-84
2023/12/26 01:22:45;;;;;;;;;;;;;;;6.25;79.72;101283.59;10386374;28;96742;-83
2023/12/26 01:27:51;;;;;;;;;;;;;;;6.28;79.90;101292.31;10393829;28;96963;-82
2023/12/26 01:33:00;;;;;;;;;;;;;;;6.24;80.14;101297.56;10374337;28;97246;-85
2023/12/26 01:38:07;;;;;;;;;;;;;;;6.21;79.78;101301.03;10373102;28;96713;-83
2023/12/26 01:43:11;;;;;;;;;;;;;;;6.26;80.11;101311.50;10374169;28;97361;-83
2023/12/26 01:48:26;;;;;;;;;;;;;;;6.30;79.37;101308.00;10374469;28;97192;-85
2023/12/26 01:53:34;;;;;;;;;;;;;;;6.33;79.88;101297.53;10373635;28;97282;-84
2023/12/26 01:58:39;;;;;;;;;;;;;;;6.28;79.86;101300.13;10373262;28;96719;-83
2023/12/26 02:03:45;;;;;;;;;;;;;;;6.18;80.01;101302.81;10372881;28;96756;-85
2023/12/26 02:08:50;;;;;;;;;;;;;;;6.20;80.09;101307.16;10373133;28;96891;-85
2023/12/26 02:13:57;;;;;;;;;;;;;;;6.22;79.90;101307.16;10373590;28;97166;-84
2023/12/26 02:19:04;;;;;;;;;;;;;;;6.24;79.69;101302.78;10372838;28;96817;-83
2023/12/26 02:24:15;;;;;;;;;;;;;;;6.26;79.96;101301.91;10364459;28;96698;-85
2023/12/26 02:29:21;;;;;;;;;;;;;;;6.23;79.64;101301.91;10329666;28;97468;-84
2023/12/26 02:34:26;;;;;;;;;;;;;;;6.20;80.14;101294.09;10330784;28;96630;-85
2023/12/26 02:39:34;;;;;;;;;;;;;;;6.15;80.43;101300.22;10370345;28;97322;-85
2023/12/26 02:44:38;;;;;;;;;;;;;;;6.18;79.92;101289.75;10372099;28;96995;-84
2023/12/26 02:49:43;;;;;;;;;;;;;;;6.14;80.39;101288.03;10371645;28;97163;-84
2023/12/26 03:00:06;;;;;;;;;;;;;;;6.08;80.35;101285.44;10246134;28;97266;-84
2023/12/26 03:05:13;;;;;;;;;;;;;;;6.10;80.63;101310.72;10249194;28;97267;-85
2023/12/26 03:10:22;;;;;;;;;;;;;;;6.14;80.74;101324.63;10248061;28;96714;-84
2023/12/26 03:15:37;;;;;;;;;;;;;;;6.11;80.25;101319.41;10248364;28;96726;-84
2023/12/26 03:20:47;;;;;;;;;;;;;;;6.09;80.65;101344.69;10247769;28;96924;-82
2023/12/26 03:25:53;;;;;;;;;;;;;;;6.10;80.72;101344.66;10247638;28;96794;-85
2023/12/26 03:31:27;;;;;;;;;;;;;;;6.04;80.89;101359.50;10248527;28;96789;-84
2023/12/26 03:36:33;;;;;;;;;;;;;;;6.11;80.46;101332.50;10247862;28;96773;-84
2023/12/26 03:41:48;;;;;;;;;;;;;;;6.14;80.40;101322.00;10248027;28;96668;-85
2023/12/26 03:47:01;;;;;;;;;;;;;;;6.08;80.87;101309.84;10252768;28;96669;-83
2023/12/26 03:52:10;;;;;;;;;;;;;;;6.04;81.17;101317.72;10254614;28;96731;-84
2023/12/26 03:57:16;;;;;;;;;;;;;;;6.00;81.21;101310.75;10254967;28;96734;-84
2023/12/26 04:02:42;;;;;;;;;;;;;;;6.01;81.29;101289.84;10254336;28;96727;-84
2023/12/26 04:07:59;;;;;;;;;;;;;;;6.05;81.01;101269.78;10254363;28;97366;-84
2023/12/26 04:13:10;;;;;;;;;;;;;;;6.03;80.66;101275.03;10253170;28;97278;-83
2023/12/26 04:18:25;;;;;;;;;;;;;;;6.02;80.92;101260.22;10254022;28;96690;-84
2023/12/26 04:23:32;;;;;;;;;;;;;;;6.00;81.14;101262.00;10254410;28;96730;-84
2023/12/26 04:34:52;;;;;;;;;;;;;;;5.92;80.83;101236.78;10251710;28;96723;-83
2023/12/26 04:40:01;;;;;;;;;;;;;;;5.85;81.92;101235.94;10253418;28;96940;-83
2023/12/26 04:45:11;;;;;;;;;;;;;;;5.84;81.26;101238.56;10252929;28;96606;-84
2023/12/26 04:50:19;;;;;;;;;;;;;;;5.80;81.95;101235.09;10277947;28;96641;-84
2023/12/26 04:55:47;;;;;;;;;;;;;;;5.77;81.45;101229.00;10253991;28;96870;-85
2023/12/26 05:01:03;;;;;;;;;;;;;;;5.82;81.71;101255.97;10252698;28;96634;-83
2023/12/26 05:06:23;;;;;;;;;;;;;;;5.72;81.35;101254.28;10251368;28;97406;-84
2023/12/26 05:11:34;;;;;;;;;;;;;;;5.76;81.27;101258.63;10252299;28;96698;-84
2023/12/26 05:16:45;;;;;;;;;;;;;;;5.77;81.96;101266.44;10252012;28;96954;-84
2023/12/26 05:21:57;;;;;;;;;;;;;;;5.78;81.60;101267.31;10252072;28;97442;-84
2023/12/26 05:27:01;;;;;;;;;;;;;;;5.77;81.52;101291.69;10251350;28;96691;-84
2023/12/26 05:32:07;;;;;;;;;;;;;;;5.84;81.68;101302.09;10251597;28;96636;-84
2023/12/26 05:37:17;;;;;;;;;;;;;;;5.81;81.40;101303.88;10251301;28;96744;-85
2023/12/26 05:42:23;;;;;;;;;;;;;;;5.78;81.45;101296.91;10251958;28;97094;-84
2023/12/26 05:47:32;;;;;;;;;;;;;;;5.79;81.30;101293.44;10271017;28;97683;-85
2023/12/26 05:52:39;;;;;;;;;;;;;;;5.80;81.44;101299.53;10281435;28;96626;-85
2023/12/26 05:57:47;;;;;;;;;;;;;;;5.83;81.30;101309.94;10289812;28;96781;-85
2023/12/26 06:02:53;;;;;;;;;;;;;;;5.76;81.34;101298.66;10257758;28;97323;-85
2023/12/26 06:08:02;;;;;;;;;;;;;;;5.76;81.49;101300.41;10249812;28;96676;-83
2023/12/26 06:13:06;;;;;;;;;;;;;;;5.81;82.12;101285.59;10250957;28;97338;-84
2023/12/26 06:18:11;;;;;;;;;;;;;;;5.80;81.60;101292.53;10250138;28;97749;-84
2023/12/26 06:23:18;;;;;;;;;;;;;;;5.80;81.36;101289.94;10250166;28;97003;-85
2023/12/26 06:28:22;;;;;;;;;;;;;;;5.80;81.28;101295.16;10250049;28;96904;-83
2023/12/26 06:33:27;;;;;;;;;;;;;;;5.73;81.20;101298.66;10250417;28;96689;-83
2023/12/26 06:38:36;;;;;;;;;;;;;;;5.72;81.48;101312.59;10249623;28;96727;-86
2023/12/26 06:43:41;;;;;;;;;;;;;;;5.71;81.56;101318.69;10255574;28;96734;-83
2023/12/26 06:48:45;;;;;;;;;;;;;;;5.68;80.90;101323.91;10268094;28;96670;-84
2023/12/26 06:53:55;;;;;;;;;;;;;;;5.68;81.60;101342.19;10249006;28;97322;-84
2023/12/26 06:59:01;;;;;;;;;;;;;;;5.65;81.43;101337.00;10248513;28;96902;-84
2023/12/26 07:04:08;;;;;;;;;;;;;;;5.62;80.96;101357.88;10248982;28;97139;-83
2023/12/26 07:09:13;;;;;;;;;;;;;;;5.66;81.72;101355.25;10248600;28;97328;-83
2023/12/26 07:14:16;;;;;;;;;;;;;;;5.65;80.75;101352.66;10248482;28;96697;-84
2023/12/26 07:19:21;;;;;;;;;;;;;;;5.67;81.15;101353.53;10250102;28;97477;-83
2023/12/26 07:24:30;;;;;;;;;;;;;;;5.58;80.85;101343.09;10255808;28;97236;-83
2023/12/26 07:29:34;;;;;;;;;;;;;;;5.55;81.15;101350.94;10255396;28;96703;-84
2023/12/26 07:34:43;;;;;;;;;;;;;;;5.54;81.67;101338.75;10255279;28;96655;-84
2023/12/26 07:39:49;;;;;;;;;;;;;;;5.53;81.67;101332.69;10253923;28;96778;-83
2023/12/26 07:44:53;;;;;;;;;;;;;;;5.55;81.32;101330.91;10254562;28;96916;-84
2023/12/26 07:50:00;;;;;;;;;;;;;;;5.48;80.84;101351.81;10254846;28;97509;-84
2023/12/26 07:55:11;;;;;;;;;;;;;;;5.53;81.14;101358.78;10254149;28;96761;-84
2023/12/26 08:00:18;;;;;;;;;;;;;;;5.52;81.23;101371.81;10254256;28;96753;-85
2023/12/26 08:05:22;;;;;;;;;;;;;;;5.52;81.72;101382.25;10254676;28;96702;-85
2023/12/26 08:10:31;;;;;;;;;;;;;;;5.52;81.31;101388.34;10254120;28;96675;-83
2023/12/26 08:15:35;;;;;;;;;;;;;;;5.49;81.08;101393.56;10253956;28;96796;-84
2023/12/26 08:20:40;;;;;;;;;;;;;;;5.48;81.79;101401.41;10254084;28;97022;-84
2023/12/26 08:25:50;;;;;;;;;;;;;;;5.47;81.18;101408.38;10253135;28;96780;-84
2023/12/26 08:30:55;;;;;;;;;;;;;;;5.47;80.90;101415.31;10252059;28;96659;-85
2023/12/26 08:36:02;;;;;;;;;;;;;;;5.55;80.86;101424.03;10253110;28;96824;-84
2023/12/26 08:41:10;;;;;;;;;;;;;;;5.52;81.01;101424.88;10271943;28;96975;-84
2023/12/26 08:46:14;;;;;;;;;;;;;;;5.53;81.02;101426.66;10264886;28;96811;-84
2023/12/26 08:51:19;;;;;;;;;;;;;;;5.55;80.50;101413.59;10252866;28;96721;-84
2023/12/26 08:56:31;;;;;;;;;;;;;;;5.76;80.37;101408.34;10252126;28;97297;-85
2023/12/26 09:01:37;;;;;;;;;;;;;;;5.83;79.57;101417.88;10252715;28;96794;-84
2023/12/26 09:06:42;;;;;;;;;;;;;;;5.87;79.98;101422.22;10253062;28;97213;-83
2023/12/26 09:11:49;;;;;;;;;;;;;;;6.01;79.83;101430.03;10253049;28;97723;-85
2023/12/26 09:16:54;;;;;;;;;;;;;;;5.99;78.64;101439.63;10252317;28;96658;-84
2023/12/26 09:21:58;;;;;;;;;;;;;;;5.90;78.91;101450.94;10251014;28;96638;-84
2023/12/26 09:27:06;;;;;;;;;;;;;;;6.02;78.56;101468.38;10251197;28;96754;-84
2023/12/26 09:32:14;;;;;;;;;;;;;;;6.05;78.40;101470.97;10251421;28;96673;-84
2023/12/26 09:37:18;;;;;;;;;;;;;;;6.19;77.48;101477.91;10254677;28;96864;-85
2023/12/26 09:42:30;;;;;;;;;;;;;;;6.15;77.33;101481.41;10269239;28;97091;-85
2023/12/26 09:47:35;;;;;;;;;;;;;;;6.22;77.38;101482.25;10250874;28;96784;-84
2023/12/26 09:52:41;;;;;;;;;;;;;;;6.37;76.76;101474.34;10250796;28;96854;-84
2023/12/26 09:57:48;;;;;;;;;;;;;;;6.55;76.28;101471.69;10250919;28;97423;-85
2023/12/26 10:02:54;;;;;;;;;;;;;;;6.40;76.26;101479.59;10250635;28;96721;-85
2023/12/26 10:08:04;;;;;;;;;;;;;;;6.45;75.73;101473.47;10250726;28;97406;-85
2023/12/26 10:13:09;;;;;;;;;;;;;;;6.60;75.46;101462.97;10249241;28;96623;-83
2023/12/26 10:18:13;;;;;;;;;;;;;;;6.73;74.39;101467.25;10249606;28;96774;-83
2023/12/26 10:23:21;;;;;;;;;;;;;;;6.82;75.06;101468.94;10250043;28;96752;-85
2023/12/26 10:28:29;;;;;;;;;;;;;;;6.66;74.71;101478.59;10249561;28;96678;-84
2023/12/26 10:33:33;;;;;;;;;;;;;;;6.73;74.82;101472.47;10249628;28;96940;-84
2023/12/26 10:38:38;;;;;;;;;;;;;;;6.88;74.85;101483.78;10280612;28;97107;-84
2023/12/26 10:43:48;;;;;;;;;;;;;;;6.74;74.68;101466.38;10290001;28;96670;-84
2023/12/26 10:48:58;;;;;;;;;;;;;;;6.78;74.55;101462.00;10280711;28;96708;-84
2023/12/26 10:54:09;;;;;;;;;;;;;;;6.80;75.02;101457.63;10248729;28;96855;-84
2023/12/26 10:59:15;;;;;;;;;;;;;;;6.76;74.58;101454.16;10248498;28;96715;-84
2023/12/26 11:04:21;;;;;;;;;;;;;;;6.77;74.99;101457.63;10247667;28;96675;-84
2023/12/26 11:09:28;;;;;;;;;;;;;;;6.77;74.32;101445.44;10248646;28;97557;-84
2023/12/26 11:14:35;;;;;;;;;;;;;;;6.61;74.92;101445.53;10248232;28;96658;-83
2023/12/26 11:19:40;;;;;;;;;;;;;;;6.70;74.43;101437.63;10248417;28;97016;-84
2023/12/26 11:24:44;;;;;;;;;;;;;;;6.82;74.31;101437.53;10247990;28;96819;-84
2023/12/26 11:29:52;;;;;;;;;;;;;;;6.80;74.46;101434.09;10247899;28;96676;-85
2023/12/26 11:34:58;;;;;;;;;;;;;;;6.72;74.76;101444.59;10266663;28;97543;-84
2023/12/26 11:40:04;;;;;;;;;;;;;;;6.75;74.70;101428.00;10278202;28;96773;-83
2023/12/26 11:45:11;;;;;;;;;;;;;;;6.98;74.13;101420.03;10248779;28;96984;-83
2023/12/26 11:50:15;;;;;;;;;;;;;;;6.85;73.70;101413.16;10247659;28;96719;-85
2023/12/26 11:55:20;;;;;;;;;;;;;;;7.28;73.38;101405.00;10246129;28;97434;-84
2023/12/26 12:00:30;;;;;;;;;;;;;;;7.30;72.86;101391.91;10247079;28;96851;-83
2023/12/26 12:05:35;;;;;;;;;;;;;;;7.24;72.83;101381.47;10249057;28;96688;-84
2023/12/26 12:10:56;;;;;;;;;;;;;;;7.35;72.49;101377.03;10254082;28;97666;-83
2023/12/26 12:16:02;;;;;;;;;;;;;;;7.31;72.35;101372.69;10254278;28;96688;-84
2023/12/26 12:21:09;;;;;;;;;;;;;;;7.43;71.67;101370.84;10253591;28;96670;-85
2023/12/26 12:26:13;;;;;;;;;;;;;;;7.29;72.08;101358.72;10253597;28;96835;-84
2023/12/26 12:31:25;;;;;;;;;;;;;;;7.33;72.54;101355.22;10254810;28;97104;-83
2023/12/26 12:36:30;;;;;;;;;;;;;;;7.39;71.99;101347.31;10269337;28;96670;-83
2023/12/26 12:41:35;;;;;;;;;;;;;;;7.43;71.89;101341.16;10293409;28;97058;-86
2023/12/26 12:46:41;;;;;;;;;;;;;;;7.49;71.88;101333.25;10292595;28;96906;-83
2023/12/26 12:51:45;;;;;;;;;;;;;;;7.35;72.32;101317.69;10253014;28;96650;-83
2023/12/26 12:56:51;;;;;;;;;;;;;;;7.19;72.61;101315.19;10268422;28;97023;-84
2023/12/26 13:01:58;;;;;;;;;;;;;;;7.14;73.04;101322.22;10293044;28;96736;-84
2023/12/26 13:07:02;;;;;;;;;;;;;;;7.21;72.75;101303.84;10265447;28;96631;-83
2023/12/26 13:12:07;;;;;;;;;;;;;;;7.27;72.88;101302.94;10252408;28;96657;-84
2023/12/26 13:17:14;;;;;;;;;;;;;;;7.56;72.45;101298.25;10250848;28;96576;-82
2023/12/26 13:22:23;;;;;;;;;;;;;;;7.94;70.90;101298.69;10252419;28;96665;-83
2023/12/26 13:27:27;;;;;;;;;;;;;;;8.14;69.93;101294.03;10251272;28;96757;-84
2023/12/26 13:32:37;;;;;;;;;;;;;;;7.94;70.38;101281.19;10269763;28;96696;-85
2023/12/26 13:37:44;;;;;;;;;;;;;;;7.81;70.78;101286.59;10262560;28;97300;-85
2023/12/26 13:42:48;;;;;;;;;;;;;;;7.66;70.77;101287.66;10251061;28;96788;-86
2023/12/26 13:47:54;;;;;;;;;;;;;;;7.66;71.28;101289.41;10250997;28;96690;-84
2023/12/26 13:53:01;;;;;;;;;;;;;;;7.75;70.76;101270.97;10280225;28;97157;-83
2023/12/26 13:58:07;;;;;;;;;;;;;;;7.55;71.20;101242.38;10263553;28;97792;-84
2023/12/26 14:03:14;;;;;;;;;;;;;;;7.55;71.41;101237.16;10250391;28;96603;-84
2023/12/26 14:08:19;;;;;;;;;;;;;;;7.32;72.13;101222.59;10250435;28;96745;-84
2023/12/26 14:13:23;;;;;;;;;;;;;;;7.37;72.56;101211.16;10251122;28;97222;-84
2023/12/26 14:18:31;;;;;;;;;;;;;;;7.11;72.78;101197.53;10250713;28;96810;-83
2023/12/26 14:23:36;;;;;;;;;;;;;;;7.11;72.83;101209.72;10250286;28;96987;-83
2023/12/26 14:28:40;;;;;;;;;;;;;;;7.05;73.10;101202.81;10248228;28;96758;-83
2023/12/26 14:33:47;;;;;;;;;;;;;;;7.09;72.65;101191.44;10249916;28;97469;-84
2023/12/26 14:38:52;;;;;;;;;;;;;;;7.02;72.75;101195.00;10287121;28;97075;-84
2023/12/26 14:43:56;;;;;;;;;;;;;;;7.06;72.67;101193.22;10290160;28;97098;-84
2023/12/26 14:49:07;;;;;;;;;;;;;;;7.34;71.83;101192.88;10262783;28;97454;-85
2023/12/26 14:54:15;;;;;;;;;;;;;;;8.63;68.36;101216.38;10249371;28;96752;-85
2023/12/26 14:59:19;;;;;;;;;;;;;;;8.74;67.17;101224.09;10248834;28;96805;-82
2023/12/26 15:04:27;;;;;;;;;;;;;;;9.07;66.67;101229.59;10249593;28;96663;-85
2023/12/26 15:09:32;;;;;;;;;;;;;;;9.07;65.82;101233.97;10248569;28;96616;-84
2023/12/26 15:14:39;;;;;;;;;;;;;;;9.24;65.28;101245.09;10278030;28;96662;-85
2023/12/26 15:19:49;;;;;;;;;;;;;;;9.24;65.26;101254.72;10287866;28;98565;-83
2023/12/26 15:30:08;;;;;;;;;;;;;;;9.14;64.90;101260.09;10410795;28;96872;-83
2023/12/26 15:35:20;;;;;;;;;;;;;;;9.17;65.61;101264.44;10412842;28;96698;-85
2023/12/26 15:40:27;;;;;;;;;;;;;;;8.65;66.67;101259.19;10414087;27;96768;-82
2023/12/26 15:45:35;;;;;;;;;;;;;;;8.25;67.99;101255.44;10420075;28;96618;-85
2023/12/26 15:50:47;;;;;;;;;;;;;;;8.11;69.30;101253.91;10419377;28;97328;-84
2023/12/26 15:55:50;;;;;;;;;;;;;;;8.49;67.64;101262.06;10420483;28;97443;-84
2023/12/26 16:01:08;;;;;;;;;;;;;;;7.89;69.58;101262.03;10419583;28;97213;-84
2023/12/26 16:06:27;;;;;;;;;;;;;;;7.45;71.18;101261.72;10419164;28;96756;-85
2023/12/26 16:11:42;;;;;;;;;;;;;;;7.13;72.54;101263.78;10417903;28;96774;-83
2023/12/26 16:16:58;;;;;;;;;;;;;;;6.91;73.30;101253.50;10418690;28;97266;-84
2023/12/26 16:22:11;;;;;;;;;;;;;;;6.91;74.07;101263.97;10418566;28;96756;-85
2023/12/26 16:27:20;;;;;;;;;;;;;;;6.81;74.15;101253.59;10418150;28;96806;-85
2023/12/26 16:32:27;;;;;;;;;;;;;;;6.73;74.82;101263.22;10418284;27;97220;-85
2023/12/26 16:37:49;;;;;;;;;;;;;;;6.75;75.14;101250.13;10418130;28;96659;-83
2023/12/26 16:43:06;;;;;;;;;;;;;;;6.72;74.89;101260.63;10417911;28;96746;-84
2023/12/26 16:48:18;;;;;;;;;;;;;;;6.69;74.99;101258.03;10418344;28;96701;-85
2023/12/26 16:53:41;;;;;;;;;;;;;;;6.65;75.14;101264.16;10417400;27;96595;-85
2023/12/26 16:58:50;;;;;;;;;;;;;;;6.57;75.68;101269.47;10417265;28;97360;-83
2023/12/26 17:04:03;;;;;;;;;;;;;;;6.44;75.97;101264.31;10416122;28;96722;-85
2023/12/26 17:09:13;;;;;;;;;;;;;;;6.43;75.82;101260.84;10417344;28;97013;-84
2023/12/26 17:14:28;;;;;;;;;;;;;;;6.41;76.70;101260.00;10416938;28;96925;-84
2023/12/26 17:19:34;;;;;;;;;;;;;;;6.37;76.64;101271.34;10417065;27;96668;-83
2023/12/26 17:24:45;;;;;;;;;;;;;;;6.39;76.82;101263.47;10416654;28;97172;-84
2023/12/26 17:29:55;;;;;;;;;;;;;;;6.29;77.33;101272.25;10415879;28;97175;-84
2023/12/26 17:35:11;;;;;;;;;;;;;;;6.26;77.37;101261.84;10416478;28;97328;-84
2023/12/26 17:40:20;;;;;;;;;;;;;;;6.25;77.48;101268.81;10416780;28;97257;-83
2023/12/26 17:45:28;;;;;;;;;;;;;;;6.21;77.78;101271.47;10416033;28;97391;-83
2023/12/26 17:50:32;;;;;;;;;;;;;;;6.20;77.92;101273.19;10414758;28;96823;-85
2023/12/26 17:55:39;;;;;;;;;;;;;;;6.21;77.28;101271.47;10414446;28;96676;-84
2023/12/26 18:00:43;;;;;;;;;;;;;;;6.23;77.97;101273.16;10415533;28;97247;-84
2023/12/26 18:05:49;;;;;;;;;;;;;;;6.16;78.14;101273.22;10414228;28;96853;-84
2023/12/26 18:10:57;;;;;;;;;;;;;;;6.20;77.84;101290.59;10414848;28;97756;-84
2023/12/26 18:16:01;;;;;;;;;;;;;;;6.19;78.09;101281.03;10414996;28;97276;-85
2023/12/26 18:21:06;;;;;;;;;;;;;;;6.12;78.26;101293.28;10414839;27;97478;-84
2023/12/26 18:26:18;;;;;;;;;;;;;;;6.15;78.52;101293.25;10413905;28;96652;-84
2023/12/26 18:31:23;;;;;;;;;;;;;;;6.17;77.90;101295.84;10414997;27;97045;-84
2023/12/26 18:36:27;;;;;;;;;;;;;;;6.16;78.61;101294.13;10414155;28;97499;-84
2023/12/26 18:41:34;;;;;;;;;;;;;;;6.12;78.37;101288.06;10414087;28;96581;-83
2023/12/26 18:46:38;;;;;;;;;;;;;;;6.12;78.64;101292.41;10412768;28;96777;-84
2023/12/26 18:51:45;;;;;;;;;;;;;;;6.18;78.72;101300.19;10413729;28;96845;-83
2023/12/26 18:56:53;;;;;;;;;;;;;;;6.21;78.25;101297.59;10413642;28;96810;-83
2023/12/26 19:01:59;;;;;;;;;;;;;;;6.18;78.46;101301.06;10413211;28;96715;-84
2023/12/26 19:07:03;;;;;;;;;;;;;;;6.20;78.58;101295.84;10412514;28;96833;-85
2023/12/26 19:12:10;;;;;;;;;;;;;;;6.19;78.91;101299.34;10413036;28;97325;-84
2023/12/26 19:17:16;;;;;;;;;;;;;;;6.14;79.27;101301.09;10412843;28;96693;-83
2023/12/26 19:22:21;;;;;;;;;;;;;;;6.13;78.66;101309.81;10413812;28;97200;-84
2023/12/26 19:27:29;;;;;;;;;;;;;;;6.16;79.03;101320.25;10412824;28;97961;-86
2023/12/26 19:32:33;;;;;;;;;;;;;;;6.18;78.51;101318.50;10412775;27;97621;-83
2023/12/26 19:37:38;;;;;;;;;;;;;;;6.09;78.51;101314.19;10411094;28;97161;-83
2023/12/26 19:42:48;;;;;;;;;;;;;;;6.21;78.85;101305.44;10412705;28;97239;-85
2023/12/26 19:47:53;;;;;;;;;;;;;;;6.12;78.94;101297.63;10411911;28;97423;-85
2023/12/26 19:53:00;;;;;;;;;;;;;;;6.11;78.68;101307.19;10412196;28;96633;-84
2023/12/26 19:58:12;;;;;;;;;;;;;;;6.08;78.98;101307.22;10412288;28;97442;-84
2023/12/26 20:03:16;;;;;;;;;;;;;;;6.09;79.39;101308.94;10412384;28;96814;-84
2023/12/26 20:08:31;;;;;;;;;;;;;;;6.04;78.88;101299.41;10370060;28;96776;-83
2023/12/26 20:13:38;;;;;;;;;;;;;;;6.08;79.66;101295.91;10410520;28;97223;-85
2023/12/26 20:18:43;;;;;;;;;;;;;;;6.10;79.36;101302.00;10411586;28;97213;-83
2023/12/26 20:23:50;;;;;;;;;;;;;;;6.07;79.27;101304.63;10411577;28;96635;-84
2023/12/26 20:28:58;;;;;;;;;;;;;;;6.12;78.64;101295.00;10414769;27;97323;-85
2023/12/26 20:34:02;;;;;;;;;;;;;;;6.05;79.63;101307.25;10418423;28;97217;-84
2023/12/26 20:39:07;;;;;;;;;;;;;;;6.03;79.00;101301.16;10418128;28;97297;-84
2023/12/26 20:44:14;;;;;;;;;;;;;;;6.06;79.41;101308.97;10417570;28;96610;-85
2023/12/26 20:49:20;;;;;;;;;;;;;;;6.03;79.29;101305.50;10416835;28;96696;-84
2023/12/26 20:54:24;;;;;;;;;;;;;;;6.05;79.21;101303.75;10417563;28;96693;-84
2023/12/26 20:59:30;;;;;;;;;;;;;;;5.95;79.72;101292.50;10417603;28;96636;-84
2023/12/26 21:04:35;;;;;;;;;;;;;;;5.99;79.18;101306.38;10417814;28;96705;-86
2023/12/26 21:09:42;;;;;;;;;;;;;;;5.97;79.62;101302.94;10416880;28;96730;-85
2023/12/26 21:14:51;;;;;;;;;;;;;;;5.93;79.82;101319.50;10417567;27;97175;-84
2023/12/26 21:19:57;;;;;;;;;;;;;;;5.90;79.55;101319.50;10415985;28;96705;-84
2023/12/26 21:25:03;;;;;;;;;;;;;;;5.90;79.61;101320.34;10416248;28;96669;-83
2023/12/26 21:30:12;;;;;;;;;;;;;;;5.93;79.82;101322.97;10416638;27;96658;-85
2023/12/26 21:35:19;;;;;;;;;;;;;;;5.92;79.52;101331.66;10416543;28;96832;-83
2023/12/26 21:40:23;;;;;;;;;;;;;;;5.96;79.78;101328.19;10415129;27;96553;-85
2023/12/26 21:45:35;;;;;;;;;;;;;;;5.92;79.29;101325.59;10415754;28;96760;-84
2023/12/26 21:50:39;;;;;;;;;;;;;;;5.94;79.04;101323.81;10416095;28;96791;-85
2023/12/26 21:55:43;;;;;;;;;;;;;;;5.89;80.07;101318.63;10417501;28;97320;-86
2023/12/26 22:00:50;;;;;;;;;;;;;;;5.91;79.42;101316.00;10390329;28;98032;-84
2023/12/26 22:05:55;;;;;;;;;;;;;;;5.91;79.43;101326.44;10373768;28;96667;-84
2023/12/26 22:10:59;;;;;;;;;;;;;;;5.86;79.91;101321.25;10400342;28;96909;-83
2023/12/26 22:16:06;;;;;;;;;;;;;;;5.88;79.34;101321.25;10414918;28;96554;-84
2023/12/26 22:21:10;;;;;;;;;;;;;;;5.92;79.59;101328.22;10414825;28;96839;-84
2023/12/26 22:26:17;;;;;;;;;;;;;;;5.85;79.70;101326.50;10414062;28;96755;-84
2023/12/26 22:31:24;;;;;;;;;;;;;;;5.87;80.13;101314.28;10414809;28;97270;-86
2023/12/26 22:36:31;;;;;;;;;;;;;;;5.88;79.74;101329.09;10414618;28;96625;-85
2023/12/26 22:41:36;;;;;;;;;;;;;;;5.88;79.92;101309.06;10414186;28;96585;-84
2023/12/26 22:46:42;;;;;;;;;;;;;;;5.86;80.35;101334.31;10414713;28;96762;-84
2023/12/26 22:51:53;;;;;;;;;;;;;;;5.88;80.39;101329.09;10414197;28;97469;-85
2023/12/26 22:56:59;;;;;;;;;;;;;;;5.80;80.10;101329.09;10410639;28;97283;-84
2023/12/26 23:02:07;;;;;;;;;;;;;;;5.80;80.63;101339.53;10398998;28;97195;-85
2023/12/26 23:07:11;;;;;;;;;;;;;;;5.84;80.16;101330.84;10413280;27;96918;-85
2023/12/26 23:12:18;;;;;;;;;;;;;;;5.76;80.26;101348.28;10413800;28;96645;-84
2023/12/26 23:17:28;;;;;;;;;;;;;;;5.74;80.17;101342.19;10412976;28;97151;-84
2023/12/26 23:22:32;;;;;;;;;;;;;;;5.69;80.68;101344.78;10413339;28;96762;-84
2023/12/26 23:27:42;;;;;;;;;;;;;;;5.74;80.75;101329.13;10412366;28;97093;-84
2023/12/26 23:32:52;;;;;;;;;;;;;;;5.67;80.29;101320.44;10412562;28;96616;-85
2023/12/26 23:37:57;;;;;;;;;;;;;;;5.68;80.32;101314.34;10371479;28;96761;-85
2023/12/26 23:43:02;;;;;;;;;;;;;;;5.68;80.42;101316.09;10370830;28;97634;-83
2023/12/26 23:48:09;;;;;;;;;;;;;;;5.68;80.21;101310.84;10370323;28;96756;-84
2023/12/26 23:53:13;;;;;;;;;;;;;;;5.69;80.35;101313.47;10398753;28;96740;-83
2023/12/26 23:58:16;;;;;;;;;;;;;;;5.59;80.46;101300.44;10412070;28;97007;-85
